Briggs, TX

3:54 AM CDT on August 22, 2014 (GMT -0500)
Fort Hood | Change Station
CLOSE
Current Station
Airport
Location: Fort Hood,
Elevation: 1014 ft
Nearby Weather Stations

Elev 1014 ft 31.07 °N, 97.83 °W | Updated 59 minutes ago

Clear
Clear
81 °F
Feels Like 85 °F
N
20
Wind Variable Wind from South
Gusts 25 mph

Today
High -- | Low -- °F
--% Chance of Precip.
Yesterday
High -- | Low -- °F
Precip. -- in
7:02 AM 8:06 PM
Waning Crescent, 9% visible
Pressure 30.00 in
Visibility 7.0 miles
Clouds Clear
Heat Index 85 °F
Dew Point 73 °F
Humidity 79%
Rainfall 0.00 in
Snow Depth Not available.
UV 0 out of 12
Pollen 6.70 out of 12
Air Quality Not available.
Flu Activity Not available.
METAR KGRK 220755Z 17017G22KT 7SM CLR 27/23 A3002 RMK SLP159

More Conditions Fewer Conditions

Pressure 30.00 in
Visibility 7.0 miles
Clouds Clear
Heat Index 85 °F
Dew Point 73 °F
Humidity 79%
Rainfall 0.00 in
Snow Depth Not available.
UV 0 out of 12
Pollen 6.70 out of 12
Air Quality Not available.
Flu Activity Not available.
METAR KGRK 220755Z 17017G22KT 7SM CLR 27/23 A3002 RMK SLP159

More Conditions Fewer Conditions

10-Day Weather Forecast

Almanac

Astronomy

Aug. 22, 2014 Rise Set
Actual Time 7:02 AM CDT 8:06 PM CDT
Civil Twilight 6:37 AM CDT 8:31 PM CDT
Nautical Twilight 6:07 AM CDT 9:01 PM CDT
Astronomical Twilight 5:36 AM CDT 9:31 PM CDT
Moon 4:31 AM CDT 6:12 PM CDT
Length of Visible Light 13h 54m
Length of Day
13h 04m
Tomorrow will be 1m 44s shorter.
Waning Crescent, 9% of the Moon is Illuminated
Today
Waning Crescent
Aug 25
New
Sep 2
First Quarter
Sep 8
Full
Sep 15
Last Quarter

Today's Extremes

State Highs State Lows

Community

WunderPhotos

Upload Photos

1,746,144 photos uploaded!

Nearby

Snow Depth

Station Depth Elevation
No new snow has been reported.

Earthquake Activity

City Distance Mag. Time & Date
No recent earthquake activity has been reported nearby.
Minimum magnitude displayed is 2.5.

Coastal Water Temperatures

Place Temperature
No Stations Reporting

Nearby Weather Stations